sensor_id;sensor_type;location;lat;lon;timestamp;P1;durP1;ratioP1;P2;durP2;ratioP2
70444;SDS011;57902;49.638;11.070;2024-03-06T00:01:04;20.10;;;8.90;;
70444;SDS011;57902;49.638;11.070;2024-03-06T00:03:30;19.73;;;8.98;;
70444;SDS011;57902;49.638;11.070;2024-03-06T00:05:57;22.30;;;9.32;;
70444;SDS011;57902;49.638;11.070;2024-03-06T00:08:23;21.25;;;9.13;;
70444;SDS011;57902;49.638;11.070;2024-03-06T00:10:50;18.83;;;8.55;;
70444;SDS011;57902;49.638;11.070;2024-03-06T00:13:16;21.77;;;8.90;;
70444;SDS011;57902;49.638;11.070;2024-03-06T00:15:43;19.85;;;8.60;;
70444;SDS011;57902;49.638;11.070;2024-03-06T00:18:10;18.10;;;7.97;;
70444;SDS011;57902;49.638;11.070;2024-03-06T00:20:37;23.83;;;8.82;;
70444;SDS011;57902;49.638;11.070;2024-03-06T00:23:03;20.85;;;8.98;;
70444;SDS011;57902;49.638;11.070;2024-03-06T00:25:30;19.83;;;7.47;;
70444;SDS011;57902;49.638;11.070;2024-03-06T00:27:57;21.60;;;9.02;;
70444;SDS011;57902;49.638;11.070;2024-03-06T00:30:23;20.30;;;9.07;;
70444;SDS011;57902;49.638;11.070;2024-03-06T00:32:50;20.08;;;8.73;;
70444;SDS011;57902;49.638;11.070;2024-03-06T00:35:17;21.23;;;8.23;;
70444;SDS011;57902;49.638;11.070;2024-03-06T00:37:43;20.08;;;8.70;;
70444;SDS011;57902;49.638;11.070;2024-03-06T00:40:10;19.38;;;8.35;;
70444;SDS011;57902;49.638;11.070;2024-03-06T00:42:38;19.45;;;8.48;;
70444;SDS011;57902;49.638;11.070;2024-03-06T00:47:33;19.08;;;8.60;;
70444;SDS011;57902;49.638;11.070;2024-03-06T00:50:01;19.80;;;9.18;;
70444;SDS011;57902;49.638;11.070;2024-03-06T00:52:27;19.52;;;7.85;;
70444;SDS011;57902;49.638;11.070;2024-03-06T00:54:54;20.00;;;8.63;;
70444;SDS011;57902;49.638;11.070;2024-03-06T00:57:20;20.92;;;8.85;;
70444;SDS011;57902;49.638;11.070;2024-03-06T00:59:47;18.60;;;8.40;;
70444;SDS011;57902;49.638;11.070;2024-03-06T01:02:13;23.77;;;8.68;;
70444;SDS011;57902;49.638;11.070;2024-03-06T01:04:40;21.88;;;8.77;;
70444;SDS011;57902;49.638;11.070;2024-03-06T01:07:07;21.38;;;9.05;;
70444;SDS011;57902;49.638;11.070;2024-03-06T01:09:33;20.10;;;8.70;;
70444;SDS011;57902;49.638;11.070;2024-03-06T01:12:00;20.73;;;9.02;;
70444;SDS011;57902;49.638;11.070;2024-03-06T01:14:26;17.67;;;8.63;;
70444;SDS011;57902;49.638;11.070;2024-03-06T01:16:53;20.30;;;8.57;;
70444;SDS011;57902;49.638;11.070;2024-03-06T01:19:19;19.63;;;8.43;;
70444;SDS011;57902;49.638;11.070;2024-03-06T01:21:46;20.60;;;8.98;;
70444;SDS011;57902;49.638;11.070;2024-03-06T01:24:12;21.20;;;9.30;;
70444;SDS011;57902;49.638;11.070;2024-03-06T01:26:39;18.85;;;9.10;;
70444;SDS011;57902;49.638;11.070;2024-03-06T01:29:06;20.95;;;9.15;;
70444;SDS011;57902;49.638;11.070;2024-03-06T01:31:33;19.73;;;8.82;;
70444;SDS011;57902;49.638;11.070;2024-03-06T01:34:00;19.35;;;8.48;;
70444;SDS011;57902;49.638;11.070;2024-03-06T01:36:26;19.45;;;8.30;;
70444;SDS011;57902;49.638;11.070;2024-03-06T01:38:53;18.55;;;8.55;;
70444;SDS011;57902;49.638;11.070;2024-03-06T01:41:19;20.27;;;9.30;;
70444;SDS011;57902;49.638;11.070;2024-03-06T01:43:46;20.80;;;8.85;;
70444;SDS011;57902;49.638;11.070;2024-03-06T01:46:13;19.67;;;8.35;;
70444;SDS011;57902;49.638;11.070;2024-03-06T01:48:39;21.92;;;9.25;;
70444;SDS011;57902;49.638;11.070;2024-03-06T01:51:06;18.15;;;8.48;;
70444;SDS011;57902;49.638;11.070;2024-03-06T01:53:33;18.90;;;9.23;;
70444;SDS011;57902;49.638;11.070;2024-03-06T01:56:02;21.00;;;9.43;;
70444;SDS011;57902;49.638;11.070;2024-03-06T01:58:30;20.52;;;9.13;;
70444;SDS011;57902;49.638;11.070;2024-03-06T02:00:57;20.85;;;9.20;;
70444;SDS011;57902;49.638;11.070;2024-03-06T02:03:24;19.80;;;8.65;;
70444;SDS011;57902;49.638;11.070;2024-03-06T02:05:51;21.17;;;9.45;;
70444;SDS011;57902;49.638;11.070;2024-03-06T02:08:19;22.95;;;8.65;;
70444;SDS011;57902;49.638;11.070;2024-03-06T02:10:45;20.23;;;8.57;;
70444;SDS011;57902;49.638;11.070;2024-03-06T02:13:13;19.42;;;8.70;;
70444;SDS011;57902;49.638;11.070;2024-03-06T02:15:40;19.00;;;8.85;;
70444;SDS011;57902;49.638;11.070;2024-03-06T02:18:07;21.02;;;8.98;;
70444;SDS011;57902;49.638;11.070;2024-03-06T02:20:37;24.17;;;10.15;;
70444;SDS011;57902;49.638;11.070;2024-03-06T02:23:05;20.75;;;8.90;;
70444;SDS011;57902;49.638;11.070;2024-03-06T02:25:32;20.42;;;8.82;;
70444;SDS011;57902;49.638;11.070;2024-03-06T02:27:59;18.48;;;7.93;;
70444;SDS011;57902;49.638;11.070;2024-03-06T02:30:25;21.25;;;8.73;;
70444;SDS011;57902;49.638;11.070;2024-03-06T02:32:52;21.23;;;8.63;;
70444;SDS011;57902;49.638;11.070;2024-03-06T02:35:19;19.17;;;9.30;;
70444;SDS011;57902;49.638;11.070;2024-03-06T02:37:45;21.50;;;8.70;;
70444;SDS011;57902;49.638;11.070;2024-03-06T02:40:12;20.25;;;8.98;;
70444;SDS011;57902;49.638;11.070;2024-03-06T02:42:39;22.33;;;8.57;;
70444;SDS011;57902;49.638;11.070;2024-03-06T02:45:06;21.83;;;9.80;;
70444;SDS011;57902;49.638;11.070;2024-03-06T02:47:34;22.45;;;8.80;;
70444;SDS011;57902;49.638;11.070;2024-03-06T02:50:01;19.10;;;8.65;;
70444;SDS011;57902;49.638;11.070;2024-03-06T02:52:27;21.95;;;9.48;;
70444;SDS011;57902;49.638;11.070;2024-03-06T02:54:54;21.60;;;9.68;;
70444;SDS011;57902;49.638;11.070;2024-03-06T02:57:20;24.25;;;10.35;;
70444;SDS011;57902;49.638;11.070;2024-03-06T02:59:48;23.00;;;9.85;;
70444;SDS011;57902;49.638;11.070;2024-03-06T03:02:15;23.98;;;10.55;;
70444;SDS011;57902;49.638;11.070;2024-03-06T03:04:41;24.23;;;10.63;;
70444;SDS011;57902;49.638;11.070;2024-03-06T03:07:09;23.80;;;9.70;;
70444;SDS011;57902;49.638;11.070;2024-03-06T03:09:36;25.52;;;10.10;;
70444;SDS011;57902;49.638;11.070;2024-03-06T03:12:05;22.60;;;9.60;;
70444;SDS011;57902;49.638;11.070;2024-03-06T03:14:32;19.65;;;8.23;;
70444;SDS011;57902;49.638;11.070;2024-03-06T03:17:00;23.67;;;9.45;;
70444;SDS011;57902;49.638;11.070;2024-03-06T03:19:26;20.70;;;8.85;;
70444;SDS011;57902;49.638;11.070;2024-03-06T03:21:53;23.27;;;10.02;;
70444;SDS011;57902;49.638;11.070;2024-03-06T03:24:20;20.77;;;9.23;;
70444;SDS011;57902;49.638;11.070;2024-03-06T03:26:48;23.75;;;9.70;;
70444;SDS011;57902;49.638;11.070;2024-03-06T03:29:14;21.70;;;9.55;;
70444;SDS011;57902;49.638;11.070;2024-03-06T03:31:41;21.23;;;9.60;;
70444;SDS011;57902;49.638;11.070;2024-03-06T03:34:08;21.35;;;9.25;;
70444;SDS011;57902;49.638;11.070;2024-03-06T03:36:42;25.92;;;9.65;;
70444;SDS011;57902;49.638;11.070;2024-03-06T03:39:10;23.92;;;10.02;;
70444;SDS011;57902;49.638;11.070;2024-03-06T03:41:43;23.48;;;9.98;;
70444;SDS011;57902;49.638;11.070;2024-03-06T03:44:13;23.90;;;9.88;;
70444;SDS011;57902;49.638;11.070;2024-03-06T03:46:41;27.80;;;10.88;;
70444;SDS011;57902;49.638;11.070;2024-03-06T03:49:07;23.45;;;9.98;;
70444;SDS011;57902;49.638;11.070;2024-03-06T03:51:35;22.70;;;10.02;;
70444;SDS011;57902;49.638;11.070;2024-03-06T03:54:02;27.92;;;10.48;;
70444;SDS011;57902;49.638;11.070;2024-03-06T03:56:29;23.15;;;9.68;;
70444;SDS011;57902;49.638;11.070;2024-03-06T03:58:56;24.08;;;10.43;;
70444;SDS011;57902;49.638;11.070;2024-03-06T04:01:24;24.92;;;10.15;;
70444;SDS011;57902;49.638;11.070;2024-03-06T04:03:52;25.45;;;10.45;;
70444;SDS011;57902;49.638;11.070;2024-03-06T04:06:18;25.60;;;10.80;;
70444;SDS011;57902;49.638;11.070;2024-03-06T04:08:45;27.58;;;10.50;;
70444;SDS011;57902;49.638;11.070;2024-03-06T04:11:12;23.90;;;9.80;;
70444;SDS011;57902;49.638;11.070;2024-03-06T04:13:38;24.27;;;10.57;;
70444;SDS011;57902;49.638;11.070;2024-03-06T04:16:05;24.05;;;10.63;;
70444;SDS011;57902;49.638;11.070;2024-03-06T04:18:32;27.52;;;11.00;;
70444;SDS011;57902;49.638;11.070;2024-03-06T04:21:02;24.45;;;10.10;;
70444;SDS011;57902;49.638;11.070;2024-03-06T04:23:32;24.95;;;10.73;;
70444;SDS011;57902;49.638;11.070;2024-03-06T04:25:59;25.45;;;9.95;;
70444;SDS011;57902;49.638;11.070;2024-03-06T04:28:26;28.25;;;10.63;;
70444;SDS011;57902;49.638;11.070;2024-03-06T04:30:53;26.63;;;10.02;;
70444;SDS011;57902;49.638;11.070;2024-03-06T04:33:20;26.08;;;10.63;;
70444;SDS011;57902;49.638;11.070;2024-03-06T04:35:46;24.38;;;10.60;;
70444;SDS011;57902;49.638;11.070;2024-03-06T04:38:13;27.13;;;11.68;;
70444;SDS011;57902;49.638;11.070;2024-03-06T04:40:40;28.95;;;11.25;;
70444;SDS011;57902;49.638;11.070;2024-03-06T04:43:06;31.17;;;12.15;;
70444;SDS011;57902;49.638;11.070;2024-03-06T04:45:33;29.35;;;10.90;;
70444;SDS011;57902;49.638;11.070;2024-03-06T04:48:00;29.83;;;11.95;;
70444;SDS011;57902;49.638;11.070;2024-03-06T04:50:27;29.52;;;11.10;;
70444;SDS011;57902;49.638;11.070;2024-03-06T04:52:53;28.10;;;11.25;;
70444;SDS011;57902;49.638;11.070;2024-03-06T04:55:20;28.98;;;11.60;;
70444;SDS011;57902;49.638;11.070;2024-03-06T04:57:49;27.73;;;11.45;;
70444;SDS011;57902;49.638;11.070;2024-03-06T05:00:15;27.35;;;11.40;;
70444;SDS011;57902;49.638;11.070;2024-03-06T05:02:44;29.63;;;12.05;;
70444;SDS011;57902;49.638;11.070;2024-03-06T05:05:28;28.92;;;11.30;;
70444;SDS011;57902;49.638;11.070;2024-03-06T05:08:13;28.45;;;10.18;;
70444;SDS011;57902;49.638;11.070;2024-03-06T05:10:56;26.25;;;10.88;;
70444;SDS011;57902;49.638;11.070;2024-03-06T05:13:40;27.55;;;11.05;;
70444;SDS011;57902;49.638;11.070;2024-03-06T05:16:24;28.35;;;11.15;;
70444;SDS011;57902;49.638;11.070;2024-03-06T05:19:10;27.88;;;10.48;;
70444;SDS011;57902;49.638;11.070;2024-03-06T05:21:54;27.48;;;11.30;;
70444;SDS011;57902;49.638;11.070;2024-03-06T05:24:38;30.35;;;10.88;;
70444;SDS011;57902;49.638;11.070;2024-03-06T05:27:23;27.90;;;11.10;;
70444;SDS011;57902;49.638;11.070;2024-03-06T05:30:07;27.70;;;11.35;;
70444;SDS011;57902;49.638;11.070;2024-03-06T05:32:52;26.10;;;10.77;;
70444;SDS011;57902;49.638;11.070;2024-03-06T05:35:36;26.55;;;10.82;;
70444;SDS011;57902;49.638;11.070;2024-03-06T05:38:20;28.85;;;10.95;;
70444;SDS011;57902;49.638;11.070;2024-03-06T05:41:05;25.60;;;10.68;;
70444;SDS011;57902;49.638;11.070;2024-03-06T05:43:49;27.52;;;11.50;;
70444;SDS011;57902;49.638;11.070;2024-03-06T05:46:33;31.75;;;12.05;;
70444;SDS011;57902;49.638;11.070;2024-03-06T05:49:17;27.83;;;11.13;;
70444;SDS011;57902;49.638;11.070;2024-03-06T05:52:01;30.15;;;11.98;;
70444;SDS011;57902;49.638;11.070;2024-03-06T05:54:46;26.88;;;11.48;;
70444;SDS011;57902;49.638;11.070;2024-03-06T05:57:30;26.20;;;11.43;;
70444;SDS011;57902;49.638;11.070;2024-03-06T06:00:14;29.70;;;11.20;;
70444;SDS011;57902;49.638;11.070;2024-03-06T06:02:41;31.13;;;11.95;;
70444;SDS011;57902;49.638;11.070;2024-03-06T06:05:08;34.58;;;16.50;;
70444;SDS011;57902;49.638;11.070;2024-03-06T06:07:49;35.80;;;15.02;;
70444;SDS011;57902;49.638;11.070;2024-03-06T06:10:16;32.88;;;14.80;;
70444;SDS011;57902;49.638;11.070;2024-03-06T06:12:47;32.83;;;13.98;;
70444;SDS011;57902;49.638;11.070;2024-03-06T06:15:14;31.05;;;12.00;;
70444;SDS011;57902;49.638;11.070;2024-03-06T06:17:41;27.52;;;11.25;;
70444;SDS011;57902;49.638;11.070;2024-03-06T06:20:11;32.28;;;13.27;;
70444;SDS011;57902;49.638;11.070;2024-03-06T06:22:42;29.33;;;11.73;;
70444;SDS011;57902;49.638;11.070;2024-03-06T06:25:08;26.73;;;11.25;;
70444;SDS011;57902;49.638;11.070;2024-03-06T06:27:36;28.38;;;11.05;;
70444;SDS011;57902;49.638;11.070;2024-03-06T06:30:03;29.42;;;12.30;;
70444;SDS011;57902;49.638;11.070;2024-03-06T06:32:32;29.50;;;12.60;;
70444;SDS011;57902;49.638;11.070;2024-03-06T06:34:59;26.80;;;11.57;;
70444;SDS011;57902;49.638;11.070;2024-03-06T06:37:26;29.33;;;12.30;;
70444;SDS011;57902;49.638;11.070;2024-03-06T06:39:53;29.60;;;12.10;;
70444;SDS011;57902;49.638;11.070;2024-03-06T06:42:19;28.33;;;11.45;;
70444;SDS011;57902;49.638;11.070;2024-03-06T06:44:46;29.75;;;11.05;;
70444;SDS011;57902;49.638;11.070;2024-03-06T06:47:12;27.35;;;11.27;;
70444;SDS011;57902;49.638;11.070;2024-03-06T06:49:39;32.63;;;12.25;;
70444;SDS011;57902;49.638;11.070;2024-03-06T06:52:05;32.03;;;12.48;;
70444;SDS011;57902;49.638;11.070;2024-03-06T06:54:32;29.17;;;11.82;;
70444;SDS011;57902;49.638;11.070;2024-03-06T06:56:58;33.22;;;12.48;;
70444;SDS011;57902;49.638;11.070;2024-03-06T06:59:25;29.00;;;12.23;;
70444;SDS011;57902;49.638;11.070;2024-03-06T07:01:51;32.78;;;13.23;;
70444;SDS011;57902;49.638;11.070;2024-03-06T07:04:18;30.70;;;12.50;;
70444;SDS011;57902;49.638;11.070;2024-03-06T07:06:46;31.23;;;12.32;;
70444;SDS011;57902;49.638;11.070;2024-03-06T07:09:13;29.40;;;12.15;;
70444;SDS011;57902;49.638;11.070;2024-03-06T07:11:42;28.52;;;11.32;;
70444;SDS011;57902;49.638;11.070;2024-03-06T07:14:12;26.05;;;11.73;;
70444;SDS011;57902;49.638;11.070;2024-03-06T07:16:42;28.40;;;12.07;;
70444;SDS011;57902;49.638;11.070;2024-03-06T07:19:10;30.13;;;11.73;;
70444;SDS011;57902;49.638;11.070;2024-03-06T07:21:37;29.52;;;11.90;;
70444;SDS011;57902;49.638;11.070;2024-03-06T07:24:04;24.65;;;10.95;;
70444;SDS011;57902;49.638;11.070;2024-03-06T07:26:32;27.52;;;11.23;;
70444;SDS011;57902;49.638;11.070;2024-03-06T07:28:59;31.95;;;12.07;;
70444;SDS011;57902;49.638;11.070;2024-03-06T07:31:26;30.65;;;11.52;;
70444;SDS011;57902;49.638;11.070;2024-03-06T07:33:53;27.52;;;10.82;;
70444;SDS011;57902;49.638;11.070;2024-03-06T07:36:20;30.90;;;12.20;;
70444;SDS011;57902;49.638;11.070;2024-03-06T07:38:47;30.80;;;11.80;;
70444;SDS011;57902;49.638;11.070;2024-03-06T07:41:13;29.48;;;11.43;;
70444;SDS011;57902;49.638;11.070;2024-03-06T07:43:40;27.13;;;11.00;;
70444;SDS011;57902;49.638;11.070;2024-03-06T07:46:07;28.80;;;12.20;;
70444;SDS011;57902;49.638;11.070;2024-03-06T07:48:37;27.70;;;10.55;;
70444;SDS011;57902;49.638;11.070;2024-03-06T07:51:05;27.20;;;11.23;;
70444;SDS011;57902;49.638;11.070;2024-03-06T07:53:31;29.15;;;11.05;;
70444;SDS011;57902;49.638;11.070;2024-03-06T07:55:58;24.80;;;11.13;;
70444;SDS011;57902;49.638;11.070;2024-03-06T07:58:24;30.30;;;11.77;;
70444;SDS011;57902;49.638;11.070;2024-03-06T08:00:51;30.83;;;11.45;;
70444;SDS011;57902;49.638;11.070;2024-03-06T08:03:24;28.10;;;10.80;;
70444;SDS011;57902;49.638;11.070;2024-03-06T08:05:51;29.27;;;10.63;;
70444;SDS011;57902;49.638;11.070;2024-03-06T08:08:22;25.20;;;10.68;;
70444;SDS011;57902;49.638;11.070;2024-03-06T08:10:49;25.40;;;10.48;;
70444;SDS011;57902;49.638;11.070;2024-03-06T08:13:16;23.25;;;9.73;;
70444;SDS011;57902;49.638;11.070;2024-03-06T08:15:44;22.45;;;9.13;;
70444;SDS011;57902;49.638;11.070;2024-03-06T08:18:11;27.67;;;9.38;;
70444;SDS011;57902;49.638;11.070;2024-03-06T08:20:40;31.15;;;10.88;;
70444;SDS011;57902;49.638;11.070;2024-03-06T08:23:07;21.20;;;8.75;;
70444;SDS011;57902;49.638;11.070;2024-03-06T08:25:36;21.23;;;7.88;;
70444;SDS011;57902;49.638;11.070;2024-03-06T08:28:02;25.25;;;9.95;;
70444;SDS011;57902;49.638;11.070;2024-03-06T08:30:29;23.40;;;9.38;;
70444;SDS011;57902;49.638;11.070;2024-03-06T08:32:59;26.80;;;11.40;;
70444;SDS011;57902;49.638;11.070;2024-03-06T08:35:27;25.30;;;9.25;;
70444;SDS011;57902;49.638;11.070;2024-03-06T08:37:53;22.48;;;9.45;;
70444;SDS011;57902;49.638;11.070;2024-03-06T08:40:20;23.73;;;9.88;;
70444;SDS011;57902;49.638;11.070;2024-03-06T08:42:47;23.85;;;9.52;;
70444;SDS011;57902;49.638;11.070;2024-03-06T08:45:15;22.88;;;9.45;;
70444;SDS011;57902;49.638;11.070;2024-03-06T08:47:44;23.50;;;9.57;;
70444;SDS011;57902;49.638;11.070;2024-03-06T08:50:11;24.27;;;9.98;;
70444;SDS011;57902;49.638;11.070;2024-03-06T08:52:39;22.80;;;7.88;;
70444;SDS011;57902;49.638;11.070;2024-03-06T08:55:07;23.38;;;9.15;;
70444;SDS011;57902;49.638;11.070;2024-03-06T08:57:35;21.65;;;7.88;;
70444;SDS011;57902;49.638;11.070;2024-03-06T09:00:03;21.00;;;8.00;;
70444;SDS011;57902;49.638;11.070;2024-03-06T09:02:30;22.13;;;8.57;;
70444;SDS011;57902;49.638;11.070;2024-03-06T09:04:57;23.80;;;8.52;;
70444;SDS011;57902;49.638;11.070;2024-03-06T09:07:24;18.67;;;7.90;;
70444;SDS011;57902;49.638;11.070;2024-03-06T09:09:51;20.67;;;8.18;;
70444;SDS011;57902;49.638;11.070;2024-03-06T09:12:20;22.02;;;7.97;;
70444;SDS011;57902;49.638;11.070;2024-03-06T09:14:47;21.98;;;7.82;;
70444;SDS011;57902;49.638;11.070;2024-03-06T09:17:14;19.85;;;8.40;;
70444;SDS011;57902;49.638;11.070;2024-03-06T09:19:41;20.13;;;8.45;;
70444;SDS011;57902;49.638;11.070;2024-03-06T09:22:28;18.33;;;7.07;;
70444;SDS011;57902;49.638;11.070;2024-03-06T09:24:54;18.92;;;7.50;;
70444;SDS011;57902;49.638;11.070;2024-03-06T09:27:22;20.85;;;8.00;;
70444;SDS011;57902;49.638;11.070;2024-03-06T09:29:49;20.00;;;7.40;;
70444;SDS011;57902;49.638;11.070;2024-03-06T09:32:16;19.67;;;7.63;;
70444;SDS011;57902;49.638;11.070;2024-03-06T09:34:45;21.73;;;7.82;;
70444;SDS011;57902;49.638;11.070;2024-03-06T09:37:12;19.85;;;7.85;;
70444;SDS011;57902;49.638;11.070;2024-03-06T09:39:38;19.60;;;7.10;;
70444;SDS011;57902;49.638;11.070;2024-03-06T09:42:05;22.63;;;9.20;;
70444;SDS011;57902;49.638;11.070;2024-03-06T09:44:31;20.60;;;7.18;;
70444;SDS011;57902;49.638;11.070;2024-03-06T09:46:59;23.83;;;7.95;;
70444;SDS011;57902;49.638;11.070;2024-03-06T09:49:30;19.10;;;8.35;;
70444;SDS011;57902;49.638;11.070;2024-03-06T09:51:57;21.35;;;9.13;;
70444;SDS011;57902;49.638;11.070;2024-03-06T09:54:25;21.67;;;8.02;;
70444;SDS011;57902;49.638;11.070;2024-03-06T09:56:53;22.35;;;7.85;;
70444;SDS011;57902;49.638;11.070;2024-03-06T09:59:22;20.63;;;7.63;;
70444;SDS011;57902;49.638;11.070;2024-03-06T10:01:58;21.08;;;7.97;;
70444;SDS011;57902;49.638;11.070;2024-03-06T10:04:29;20.30;;;7.80;;
70444;SDS011;57902;49.638;11.070;2024-03-06T10:07:00;20.73;;;8.60;;
70444;SDS011;57902;49.638;11.070;2024-03-06T10:09:29;22.30;;;7.60;;
70444;SDS011;57902;49.638;11.070;2024-03-06T10:11:57;21.55;;;8.00;;
70444;SDS011;57902;49.638;11.070;2024-03-06T10:14:28;23.52;;;7.65;;
70444;SDS011;57902;49.638;11.070;2024-03-06T10:16:56;23.17;;;8.73;;
70444;SDS011;57902;49.638;11.070;2024-03-06T10:19:24;21.90;;;8.57;;
70444;SDS011;57902;49.638;11.070;2024-03-06T10:21:57;24.38;;;8.95;;
70444;SDS011;57902;49.638;11.070;2024-03-06T10:24:26;22.42;;;8.23;;
70444;SDS011;57902;49.638;11.070;2024-03-06T10:26:55;20.75;;;7.90;;
70444;SDS011;57902;49.638;11.070;2024-03-06T10:29:25;21.35;;;8.63;;
70444;SDS011;57902;49.638;11.070;2024-03-06T10:31:54;21.70;;;8.50;;
70444;SDS011;57902;49.638;11.070;2024-03-06T10:34:26;22.45;;;8.88;;
70444;SDS011;57902;49.638;11.070;2024-03-06T10:36:57;22.95;;;9.18;;
70444;SDS011;57902;49.638;11.070;2024-03-06T10:39:25;32.92;;;11.35;;
70444;SDS011;57902;49.638;11.070;2024-03-06T10:44:21;29.75;;;9.20;;
70444;SDS011;57902;49.638;11.070;2024-03-06T10:49:36;21.83;;;8.75;;
70444;SDS011;57902;49.638;11.070;2024-03-06T10:52:04;17.73;;;7.07;;
70444;SDS011;57902;49.638;11.070;2024-03-06T10:54:34;19.05;;;7.45;;
70444;SDS011;57902;49.638;11.070;2024-03-06T10:57:03;17.15;;;6.40;;
70444;SDS011;57902;49.638;11.070;2024-03-06T10:59:30;24.23;;;8.52;;
70444;SDS011;57902;49.638;11.070;2024-03-06T11:01:58;19.30;;;9.43;;
70444;SDS011;57902;49.638;11.070;2024-03-06T11:04:30;20.65;;;7.20;;
70444;SDS011;57902;49.638;11.070;2024-03-06T11:07:01;19.95;;;7.15;;
70444;SDS011;57902;49.638;11.070;2024-03-06T11:09:32;17.92;;;7.53;;
70444;SDS011;57902;49.638;11.070;2024-03-06T11:12:04;21.13;;;7.78;;
70444;SDS011;57902;49.638;11.070;2024-03-06T11:14:38;17.17;;;6.38;;
70444;SDS011;57902;49.638;11.070;2024-03-06T11:17:07;23.48;;;7.95;;
70444;SDS011;57902;49.638;11.070;2024-03-06T11:30:58;21.58;;;8.77;;
70444;SDS011;57902;49.638;11.070;2024-03-06T11:33:35;23.83;;;9.45;;
70444;SDS011;57902;49.638;11.070;2024-03-06T11:36:20;22.92;;;8.23;;
70444;SDS011;57902;49.638;11.070;2024-03-06T11:38:53;26.10;;;9.55;;
70444;SDS011;57902;49.638;11.070;2024-03-06T11:41:20;22.17;;;8.80;;
70444;SDS011;57902;49.638;11.070;2024-03-06T11:43:52;21.45;;;8.73;;
70444;SDS011;57902;49.638;11.070;2024-03-06T11:46:20;23.23;;;9.25;;
70444;SDS011;57902;49.638;11.070;2024-03-06T11:48:54;24.83;;;8.95;;
70444;SDS011;57902;49.638;11.070;2024-03-06T11:51:21;24.05;;;10.45;;
70444;SDS011;57902;49.638;11.070;2024-03-06T11:53:50;23.52;;;9.32;;
70444;SDS011;57902;49.638;11.070;2024-03-06T11:56:17;24.35;;;9.02;;
70444;SDS011;57902;49.638;11.070;2024-03-06T11:58:46;23.33;;;10.02;;
70444;SDS011;57902;49.638;11.070;2024-03-06T12:01:15;27.27;;;9.57;;
70444;SDS011;57902;49.638;11.070;2024-03-06T12:03:42;23.40;;;9.20;;
70444;SDS011;57902;49.638;11.070;2024-03-06T12:06:09;24.52;;;9.93;;
70444;SDS011;57902;49.638;11.070;2024-03-06T12:08:36;24.23;;;9.55;;
70444;SDS011;57902;49.638;11.070;2024-03-06T12:11:06;20.27;;;7.72;;
70444;SDS011;57902;49.638;11.070;2024-03-06T12:13:35;28.63;;;9.52;;
70444;SDS011;57902;49.638;11.070;2024-03-06T12:16:05;28.05;;;8.98;;
70444;SDS011;57902;49.638;11.070;2024-03-06T12:18:33;26.60;;;8.32;;
70444;SDS011;57902;49.638;11.070;2024-03-06T12:21:01;25.35;;;10.60;;
70444;SDS011;57902;49.638;11.070;2024-03-06T12:23:29;21.30;;;8.20;;
70444;SDS011;57902;49.638;11.070;2024-03-06T12:26:02;25.33;;;9.00;;
70444;SDS011;57902;49.638;11.070;2024-03-06T12:28:32;26.50;;;10.63;;
70444;SDS011;57902;49.638;11.070;2024-03-06T12:30:58;23.67;;;9.35;;
70444;SDS011;57902;49.638;11.070;2024-03-06T12:33:28;33.03;;;10.38;;
70444;SDS011;57902;49.638;11.070;2024-03-06T12:36:00;24.42;;;9.38;;
70444;SDS011;57902;49.638;11.070;2024-03-06T12:38:29;24.10;;;8.15;;
70444;SDS011;57902;49.638;11.070;2024-03-06T12:40:57;26.10;;;9.52;;
70444;SDS011;57902;49.638;11.070;2024-03-06T12:43:25;22.58;;;8.85;;
70444;SDS011;57902;49.638;11.070;2024-03-06T12:45:52;22.98;;;8.65;;
70444;SDS011;57902;49.638;11.070;2024-03-06T12:48:22;22.42;;;8.50;;
70444;SDS011;57902;49.638;11.070;2024-03-06T12:50:50;21.42;;;8.70;;
70444;SDS011;57902;49.638;11.070;2024-03-06T12:53:21;25.75;;;8.63;;
70444;SDS011;57902;49.638;11.070;2024-03-06T12:55:48;30.25;;;12.35;;
70444;SDS011;57902;49.638;11.070;2024-03-06T12:58:15;21.58;;;8.75;;
70444;SDS011;57902;49.638;11.070;2024-03-06T13:00:41;21.23;;;9.20;;
70444;SDS011;57902;49.638;11.070;2024-03-06T13:03:08;21.88;;;8.88;;
70444;SDS011;57902;49.638;11.070;2024-03-06T13:05:35;22.23;;;8.75;;
70444;SDS011;57902;49.638;11.070;2024-03-06T13:08:01;20.55;;;10.90;;
70444;SDS011;57902;49.638;11.070;2024-03-06T13:10:28;21.17;;;8.32;;
70444;SDS011;57902;49.638;11.070;2024-03-06T13:12:55;21.67;;;8.85;;
70444;SDS011;57902;49.638;11.070;2024-03-06T13:15:21;18.80;;;7.75;;
70444;SDS011;57902;49.638;11.070;2024-03-06T13:17:48;23.00;;;9.73;;
70444;SDS011;57902;49.638;11.070;2024-03-06T13:20:15;17.77;;;7.65;;
70444;SDS011;57902;49.638;11.070;2024-03-06T13:22:42;15.73;;;6.65;;
70444;SDS011;57902;49.638;11.070;2024-03-06T13:27:36;22.80;;;6.60;;
70444;SDS011;57902;49.638;11.070;2024-03-06T13:30:04;18.13;;;7.15;;
70444;SDS011;57902;49.638;11.070;2024-03-06T13:32:34;15.82;;;6.30;;
70444;SDS011;57902;49.638;11.070;2024-03-06T13:35:01;17.20;;;7.13;;
70444;SDS011;57902;49.638;11.070;2024-03-06T13:37:27;17.17;;;7.60;;
70444;SDS011;57902;49.638;11.070;2024-03-06T13:39:54;20.05;;;7.40;;
70444;SDS011;57902;49.638;11.070;2024-03-06T13:42:24;21.02;;;8.35;;
70444;SDS011;57902;49.638;11.070;2024-03-06T13:44:51;18.67;;;7.05;;
70444;SDS011;57902;49.638;11.070;2024-03-06T13:47:17;20.17;;;8.15;;
70444;SDS011;57902;49.638;11.070;2024-03-06T13:49:44;22.05;;;8.02;;
70444;SDS011;57902;49.638;11.070;2024-03-06T13:52:10;20.80;;;8.35;;
70444;SDS011;57902;49.638;11.070;2024-03-06T13:57:09;15.50;;;6.63;;
70444;SDS011;57902;49.638;11.070;2024-03-06T13:59:36;18.17;;;6.28;;
70444;SDS011;57902;49.638;11.070;2024-03-06T14:02:04;17.08;;;6.90;;
70444;SDS011;57902;49.638;11.070;2024-03-06T14:04:30;14.45;;;7.13;;
70444;SDS011;57902;49.638;11.070;2024-03-06T14:06:57;20.20;;;9.27;;
70444;SDS011;57902;49.638;11.070;2024-03-06T14:09:25;20.45;;;9.98;;
70444;SDS011;57902;49.638;11.070;2024-03-06T14:11:53;16.75;;;7.10;;
70444;SDS011;57902;49.638;11.070;2024-03-06T14:14:20;20.17;;;8.43;;
70444;SDS011;57902;49.638;11.070;2024-03-06T14:16:47;16.05;;;6.47;;
70444;SDS011;57902;49.638;11.070;2024-03-06T14:19:14;15.48;;;6.60;;
70444;SDS011;57902;49.638;11.070;2024-03-06T14:21:40;18.95;;;5.78;;
70444;SDS011;57902;49.638;11.070;2024-03-06T14:24:07;14.02;;;5.45;;
70444;SDS011;57902;49.638;11.070;2024-03-06T14:26:34;19.20;;;7.30;;
70444;SDS011;57902;49.638;11.070;2024-03-06T14:29:01;15.55;;;6.90;;
70444;SDS011;57902;49.638;11.070;2024-03-06T14:31:29;15.52;;;6.13;;
70444;SDS011;57902;49.638;11.070;2024-03-06T14:33:55;14.98;;;6.03;;
70444;SDS011;57902;49.638;11.070;2024-03-06T14:36:22;19.27;;;5.80;;
70444;SDS011;57902;49.638;11.070;2024-03-06T14:38:51;13.50;;;6.07;;
70444;SDS011;57902;49.638;11.070;2024-03-06T14:41:21;16.75;;;5.88;;
70444;SDS011;57902;49.638;11.070;2024-03-06T14:43:48;20.08;;;8.50;;
70444;SDS011;57902;49.638;11.070;2024-03-06T14:46:14;18.42;;;7.28;;
70444;SDS011;57902;49.638;11.070;2024-03-06T14:48:41;16.40;;;6.65;;